sensor_id;sensor_type;location;lat;lon;timestamp;pressure;altitude;pressure_sealevel;temperature;humidity
61908;BME280;47864;52.526;19.672;2022-07-10T00:01:57;100856.63;;;13.07;100.00
61908;BME280;47864;52.526;19.672;2022-07-10T00:03:59;100852.97;;;13.08;100.00
61908;BME280;47864;52.526;19.672;2022-07-10T00:06:01;100848.09;;;13.03;100.00
61908;BME280;47864;52.526;19.672;2022-07-10T00:08:03;100857.47;;;13.07;100.00
61908;BME280;47864;52.526;19.672;2022-07-10T00:10:05;100857.94;;;13.11;100.00
61908;BME280;47864;52.526;19.672;2022-07-10T00:12:07;100853.47;;;13.11;100.00
61908;BME280;47864;52.526;19.672;2022-07-10T00:14:09;100848.59;;;12.99;100.00
61908;BME280;47864;52.526;19.672;2022-07-10T00:16:11;100847.91;;;12.96;100.00
61908;BME280;47864;52.526;19.672;2022-07-10T00:18:12;100835.56;;;12.87;100.00
61908;BME280;47864;52.526;19.672;2022-07-10T00:20:15;100834.56;;;12.88;100.00
61908;BME280;47864;52.526;19.672;2022-07-10T00:22:17;100836.22;;;12.81;100.00
61908;BME280;47864;52.526;19.672;2022-07-10T00:24:19;100841.19;;;12.76;100.00
61908;BME280;47864;52.526;19.672;2022-07-10T00:26:21;100833.31;;;12.67;100.00
61908;BME280;47864;52.526;19.672;2022-07-10T00:28:23;100826.31;;;12.66;100.00
61908;BME280;47864;52.526;19.672;2022-07-10T00:30:25;100818.44;;;12.56;100.00
61908;BME280;47864;52.526;19.672;2022-07-10T00:32:27;100814.56;;;12.42;100.00
61908;BME280;47864;52.526;19.672;2022-07-10T00:34:28;100817.44;;;12.57;100.00
61908;BME280;47864;52.526;19.672;2022-07-10T00:36:31;100822.25;;;12.53;100.00
61908;BME280;47864;52.526;19.672;2022-07-10T00:38:32;100821.09;;;12.56;100.00
61908;BME280;47864;52.526;19.672;2022-07-10T00:40:35;100821.91;;;12.48;100.00
61908;BME280;47864;52.526;19.672;2022-07-10T00:42:37;100814.91;;;12.47;100.00
61908;BME280;47864;52.526;19.672;2022-07-10T00:44:39;100820.56;;;12.52;100.00
61908;BME280;47864;52.526;19.672;2022-07-10T00:46:41;100813.44;;;12.53;100.00
61908;BME280;47864;52.526;19.672;2022-07-10T00:48:43;100811.75;;;12.52;100.00
61908;BME280;47864;52.526;19.672;2022-07-10T00:50:46;100801.28;;;12.50;100.00
61908;BME280;47864;52.526;19.672;2022-07-10T00:52:48;100817.56;;;12.47;100.00
61908;BME280;47864;52.526;19.672;2022-07-10T00:54:50;100814.44;;;12.26;100.00
61908;BME280;47864;52.526;19.672;2022-07-10T00:56:52;100811.31;;;12.31;100.00
61908;BME280;47864;52.526;19.672;2022-07-10T00:58:54;100812.84;;;12.33;100.00
61908;BME280;47864;52.526;19.672;2022-07-10T01:00:56;100812.34;;;12.38;100.00
61908;BME280;47864;52.526;19.672;2022-07-10T01:02:58;100814.03;;;12.39;100.00
61908;BME280;47864;52.526;19.672;2022-07-10T01:05:00;100802.50;;;12.30;100.00
61908;BME280;47864;52.526;19.672;2022-07-10T01:07:03;100814.16;;;12.37;100.00
61908;BME280;47864;52.526;19.672;2022-07-10T01:09:05;100809.84;;;12.36;100.00
61908;BME280;47864;52.526;19.672;2022-07-10T01:11:07;100811.84;;;12.34;100.00
61908;BME280;47864;52.526;19.672;2022-07-10T01:13:09;100811.50;;;12.37;100.00
61908;BME280;47864;52.526;19.672;2022-07-10T01:15:11;100810.91;;;12.43;100.00
61908;BME280;47864;52.526;19.672;2022-07-10T01:17:13;100805.53;;;12.35;100.00
61908;BME280;47864;52.526;19.672;2022-07-10T01:19:15;100808.69;;;12.39;100.00
61908;BME280;47864;52.526;19.672;2022-07-10T01:21:31;100813.19;;;12.38;100.00
61908;BME280;47864;52.526;19.672;2022-07-10T01:23:33;100811.00;;;12.34;100.00
61908;BME280;47864;52.526;19.672;2022-07-10T01:25:34;100814.50;;;12.34;100.00
61908;BME280;47864;52.526;19.672;2022-07-10T01:27:36;100808.34;;;12.34;100.00
61908;BME280;47864;52.526;19.672;2022-07-10T01:29:39;100806.19;;;12.37;100.00
61908;BME280;47864;52.526;19.672;2022-07-10T01:31:41;100803.47;;;12.29;100.00
61908;BME280;47864;52.526;19.672;2022-07-10T01:33:43;100800.13;;;12.27;100.00
61908;BME280;47864;52.526;19.672;2022-07-10T01:35:45;100807.03;;;12.38;100.00
61908;BME280;47864;52.526;19.672;2022-07-10T01:37:47;100804.69;;;12.35;100.00
61908;BME280;47864;52.526;19.672;2022-07-10T01:39:48;100798.53;;;12.34;100.00
61908;BME280;47864;52.526;19.672;2022-07-10T01:41:50;100796.53;;;12.36;100.00
61908;BME280;47864;52.526;19.672;2022-07-10T01:43:53;100796.91;;;12.41;100.00
61908;BME280;47864;52.526;19.672;2022-07-10T01:45:55;100801.59;;;12.47;100.00
61908;BME280;47864;52.526;19.672;2022-07-10T01:47:57;100793.78;;;12.46;100.00
61908;BME280;47864;52.526;19.672;2022-07-10T01:49:59;100799.88;;;12.38;100.00
61908;BME280;47864;52.526;19.672;2022-07-10T01:52:00;100802.38;;;12.40;100.00
61908;BME280;47864;52.526;19.672;2022-07-10T01:54:02;100792.44;;;12.42;100.00
61908;BME280;47864;52.526;19.672;2022-07-10T01:56:09;100792.28;;;12.43;100.00
61908;BME280;47864;52.526;19.672;2022-07-10T01:58:11;100796.22;;;12.39;100.00
61908;BME280;47864;52.526;19.672;2022-07-10T02:00:13;100786.72;;;12.37;100.00
61908;BME280;47864;52.526;19.672;2022-07-10T02:02:15;100789.91;;;12.40;100.00
61908;BME280;47864;52.526;19.672;2022-07-10T02:04:17;100793.28;;;12.42;100.00
61908;BME280;47864;52.526;19.672;2022-07-10T02:06:19;100791.09;;;12.46;100.00
61908;BME280;47864;52.526;19.672;2022-07-10T02:08:21;100790.13;;;12.47;100.00
61908;BME280;47864;52.526;19.672;2022-07-10T02:10:22;100794.09;;;12.43;100.00
61908;BME280;47864;52.526;19.672;2022-07-10T02:12:24;100794.06;;;12.35;100.00
61908;BME280;47864;52.526;19.672;2022-07-10T02:14:27;100788.41;;;12.38;100.00
61908;BME280;47864;52.526;19.672;2022-07-10T02:16:29;100791.06;;;12.38;100.00
61908;BME280;47864;52.526;19.672;2022-07-10T02:18:31;100788.94;;;12.41;100.00
61908;BME280;47864;52.526;19.672;2022-07-10T02:20:33;100779.31;;;12.48;100.00
61908;BME280;47864;52.526;19.672;2022-07-10T02:22:34;100776.03;;;12.54;100.00
61908;BME280;47864;52.526;19.672;2022-07-10T02:24:36;100777.53;;;12.57;100.00
61908;BME280;47864;52.526;19.672;2022-07-10T02:26:38;100773.50;;;12.53;100.00
61908;BME280;47864;52.526;19.672;2022-07-10T02:28:40;100773.41;;;12.63;100.00
61908;BME280;47864;52.526;19.672;2022-07-10T02:30:42;100781.22;;;12.64;100.00
61908;BME280;47864;52.526;19.672;2022-07-10T02:32:44;100778.06;;;12.69;100.00
61908;BME280;47864;52.526;19.672;2022-07-10T02:34:46;100775.06;;;12.64;100.00
61908;BME280;47864;52.526;19.672;2022-07-10T02:36:48;100774.19;;;12.55;100.00
61908;BME280;47864;52.526;19.672;2022-07-10T02:38:50;100772.19;;;12.49;100.00
61908;BME280;47864;52.526;19.672;2022-07-10T02:40:52;100771.97;;;12.42;100.00
61908;BME280;47864;52.526;19.672;2022-07-10T02:42:53;100777.47;;;12.41;100.00
61908;BME280;47864;52.526;19.672;2022-07-10T02:44:55;100767.00;;;12.47;100.00
61908;BME280;47864;52.526;19.672;2022-07-10T02:46:57;100765.38;;;12.54;100.00
61908;BME280;47864;52.526;19.672;2022-07-10T02:48:59;100765.75;;;12.60;100.00
61908;BME280;47864;52.526;19.672;2022-07-10T02:51:01;100759.94;;;12.64;100.00
61908;BME280;47864;52.526;19.672;2022-07-10T02:53:03;100759.41;;;12.61;100.00
61908;BME280;47864;52.526;19.672;2022-07-10T02:55:05;100765.25;;;12.64;100.00
61908;BME280;47864;52.526;19.672;2022-07-10T02:57:07;100761.06;;;12.62;100.00
61908;BME280;47864;52.526;19.672;2022-07-10T02:59:09;100760.78;;;12.65;100.00
61908;BME280;47864;52.526;19.672;2022-07-10T03:01:11;100752.78;;;12.65;100.00
61908;BME280;47864;52.526;19.672;2022-07-10T03:03:13;100754.75;;;12.63;100.00
61908;BME280;47864;52.526;19.672;2022-07-10T03:05:15;100758.56;;;12.60;100.00
61908;BME280;47864;52.526;19.672;2022-07-10T03:07:17;100754.56;;;12.56;100.00
61908;BME280;47864;52.526;19.672;2022-07-10T03:09:19;100756.56;;;12.54;100.00
61908;BME280;47864;52.526;19.672;2022-07-10T03:11:20;100759.56;;;12.51;100.00
61908;BME280;47864;52.526;19.672;2022-07-10T03:13:22;100758.72;;;12.50;100.00
61908;BME280;47864;52.526;19.672;2022-07-10T03:15:24;100765.22;;;12.56;100.00
61908;BME280;47864;52.526;19.672;2022-07-10T03:17:26;100758.75;;;12.58;100.00
61908;BME280;47864;52.526;19.672;2022-07-10T03:19:28;100754.31;;;12.67;100.00
61908;BME280;47864;52.526;19.672;2022-07-10T03:21:30;100753.00;;;12.79;100.00
61908;BME280;47864;52.526;19.672;2022-07-10T03:23:32;100745.84;;;12.80;100.00
61908;BME280;47864;52.526;19.672;2022-07-10T03:25:34;100740.69;;;12.78;100.00
61908;BME280;47864;52.526;19.672;2022-07-10T03:27:35;100738.84;;;12.79;100.00
61908;BME280;47864;52.526;19.672;2022-07-10T03:29:37;100747.69;;;12.79;100.00
61908;BME280;47864;52.526;19.672;2022-07-10T03:31:39;100751.66;;;12.75;100.00
61908;BME280;47864;52.526;19.672;2022-07-10T03:33:41;100753.69;;;12.81;100.00
61908;BME280;47864;52.526;19.672;2022-07-10T03:35:43;100747.03;;;12.85;100.00
61908;BME280;47864;52.526;19.672;2022-07-10T03:37:45;100747.03;;;12.93;100.00
61908;BME280;47864;52.526;19.672;2022-07-10T03:39:47;100752.91;;;12.97;100.00
61908;BME280;47864;52.526;19.672;2022-07-10T03:41:49;100754.72;;;12.96;100.00
61908;BME280;47864;52.526;19.672;2022-07-10T03:43:51;100757.41;;;13.05;100.00
61908;BME280;47864;52.526;19.672;2022-07-10T03:45:53;100751.31;;;13.20;100.00
61908;BME280;47864;52.526;19.672;2022-07-10T03:47:54;100746.66;;;13.22;100.00
61908;BME280;47864;52.526;19.672;2022-07-10T03:49:56;100746.34;;;13.25;100.00
61908;BME280;47864;52.526;19.672;2022-07-10T03:52:00;100743.00;;;13.31;100.00
61908;BME280;47864;52.526;19.672;2022-07-10T03:54:02;100748.66;;;13.28;100.00
61908;BME280;47864;52.526;19.672;2022-07-10T03:56:04;100743.16;;;13.30;100.00
61908;BME280;47864;52.526;19.672;2022-07-10T03:58:06;100737.69;;;13.31;100.00
61908;BME280;47864;52.526;19.672;2022-07-10T04:00:08;100747.66;;;13.29;100.00
61908;BME280;47864;52.526;19.672;2022-07-10T04:02:10;100739.31;;;13.16;100.00
61908;BME280;47864;52.526;19.672;2022-07-10T04:04:12;100738.97;;;13.19;100.00
61908;BME280;47864;52.526;19.672;2022-07-10T04:06:14;100746.75;;;13.05;100.00
61908;BME280;47864;52.526;19.672;2022-07-10T04:08:16;100741.63;;;13.19;100.00
61908;BME280;47864;52.526;19.672;2022-07-10T04:10:18;100743.25;;;13.12;100.00
61908;BME280;47864;52.526;19.672;2022-07-10T04:12:20;100735.16;;;13.14;100.00
61908;BME280;47864;52.526;19.672;2022-07-10T04:14:22;100738.94;;;13.11;100.00
61908;BME280;47864;52.526;19.672;2022-07-10T04:16:24;100731.97;;;13.18;100.00
61908;BME280;47864;52.526;19.672;2022-07-10T04:18:26;100732.66;;;13.20;100.00
61908;BME280;47864;52.526;19.672;2022-07-10T04:20:28;100734.66;;;13.26;100.00
61908;BME280;47864;52.526;19.672;2022-07-10T04:22:30;100732.34;;;13.31;100.00
61908;BME280;47864;52.526;19.672;2022-07-10T04:24:32;100732.69;;;13.37;100.00
61908;BME280;47864;52.526;19.672;2022-07-10T04:26:34;100732.00;;;13.43;100.00
61908;BME280;47864;52.526;19.672;2022-07-10T04:28:36;100728.53;;;13.50;100.00
61908;BME280;47864;52.526;19.672;2022-07-10T04:30:38;100718.88;;;13.49;100.00
61908;BME280;47864;52.526;19.672;2022-07-10T04:32:40;100717.03;;;13.42;100.00
61908;BME280;47864;52.526;19.672;2022-07-10T04:34:42;100713.69;;;13.64;100.00
61908;BME280;47864;52.526;19.672;2022-07-10T04:36:43;100716.03;;;13.67;100.00
61908;BME280;47864;52.526;19.672;2022-07-10T04:38:45;100711.84;;;13.81;100.00
61908;BME280;47864;52.526;19.672;2022-07-10T04:40:47;100704.97;;;13.94;100.00
61908;BME280;47864;52.526;19.672;2022-07-10T04:42:49;100706.66;;;13.87;100.00
61908;BME280;47864;52.526;19.672;2022-07-10T04:44:51;100712.13;;;14.02;100.00
61908;BME280;47864;52.526;19.672;2022-07-10T04:46:53;100710.16;;;13.96;100.00
61908;BME280;47864;52.526;19.672;2022-07-10T04:48:55;100706.97;;;13.92;100.00
61908;BME280;47864;52.526;19.672;2022-07-10T04:50:56;100706.13;;;14.08;100.00
61908;BME280;47864;52.526;19.672;2022-07-10T04:52:58;100703.81;;;13.97;100.00
61908;BME280;47864;52.526;19.672;2022-07-10T04:55:00;100712.97;;;14.02;100.00
61908;BME280;47864;52.526;19.672;2022-07-10T04:57:02;100710.94;;;14.13;100.00
61908;BME280;47864;52.526;19.672;2022-07-10T04:59:04;100710.75;;;14.22;100.00
61908;BME280;47864;52.526;19.672;2022-07-10T05:01:06;100705.53;;;14.45;100.00
61908;BME280;47864;52.526;19.672;2022-07-10T05:03:08;100713.84;;;14.50;100.00
61908;BME280;47864;52.526;19.672;2022-07-10T05:05:10;100697.06;;;14.25;100.00
61908;BME280;47864;52.526;19.672;2022-07-10T05:07:11;100709.38;;;14.34;100.00
61908;BME280;47864;52.526;19.672;2022-07-10T05:09:13;100706.22;;;14.31;100.00
61908;BME280;47864;52.526;19.672;2022-07-10T05:11:15;100704.69;;;14.44;100.00
61908;BME280;47864;52.526;19.672;2022-07-10T05:13:17;100706.03;;;14.49;100.00
61908;BME280;47864;52.526;19.672;2022-07-10T05:15:19;100704.44;;;14.62;100.00
61908;BME280;47864;52.526;19.672;2022-07-10T05:17:21;100709.09;;;14.68;100.00
61908;BME280;47864;52.526;19.672;2022-07-10T05:19:22;100707.16;;;14.85;100.00
61908;BME280;47864;52.526;19.672;2022-07-10T05:21:24;100715.44;;;14.98;100.00
61908;BME280;47864;52.526;19.672;2022-07-10T05:23:26;100713.91;;;15.04;100.00
61908;BME280;47864;52.526;19.672;2022-07-10T05:25:28;100709.00;;;14.84;100.00
61908;BME280;47864;52.526;19.672;2022-07-10T05:27:30;100708.91;;;15.01;100.00
61908;BME280;47864;52.526;19.672;2022-07-10T05:29:32;100712.81;;;14.90;100.00
61908;BME280;47864;52.526;19.672;2022-07-10T05:31:34;100713.00;;;14.89;100.00
61908;BME280;47864;52.526;19.672;2022-07-10T05:33:36;100715.03;;;14.78;100.00
61908;BME280;47864;52.526;19.672;2022-07-10T05:35:38;100720.97;;;14.97;100.00
61908;BME280;47864;52.526;19.672;2022-07-10T05:37:40;100709.69;;;15.09;100.00
61908;BME280;47864;52.526;19.672;2022-07-10T05:39:42;100718.28;;;14.97;100.00
61908;BME280;47864;52.526;19.672;2022-07-10T05:41:44;100713.00;;;15.11;100.00
61908;BME280;47864;52.526;19.672;2022-07-10T05:43:46;100716.16;;;15.15;100.00
61908;BME280;47864;52.526;19.672;2022-07-10T05:45:48;100708.59;;;15.41;100.00
61908;BME280;47864;52.526;19.672;2022-07-10T05:47:54;100704.75;;;15.21;100.00
61908;BME280;47864;52.526;19.672;2022-07-10T05:49:56;100696.09;;;15.19;100.00
61908;BME280;47864;52.526;19.672;2022-07-10T05:51:58;100707.66;;;15.34;100.00
61908;BME280;47864;52.526;19.672;2022-07-10T05:54:00;100697.97;;;15.33;100.00
61908;BME280;47864;52.526;19.672;2022-07-10T05:56:02;100710.50;;;15.78;100.00
61908;BME280;47864;52.526;19.672;2022-07-10T05:58:04;100712.25;;;15.86;100.00
61908;BME280;47864;52.526;19.672;2022-07-10T06:00:08;100713.41;;;15.69;100.00
61908;BME280;47864;52.526;19.672;2022-07-10T06:02:10;100695.50;;;15.54;100.00
61908;BME280;47864;52.526;19.672;2022-07-10T06:04:12;100684.81;;;15.54;100.00
61908;BME280;47864;52.526;19.672;2022-07-10T06:06:14;100713.06;;;15.72;100.00
61908;BME280;47864;52.526;19.672;2022-07-10T06:08:16;100707.56;;;15.88;100.00
61908;BME280;47864;52.526;19.672;2022-07-10T06:10:17;100699.81;;;15.93;100.00
61908;BME280;47864;52.526;19.672;2022-07-10T06:12:19;100700.28;;;16.11;98.83
61908;BME280;47864;52.526;19.672;2022-07-10T06:14:21;100701.19;;;16.33;96.39
61908;BME280;47864;52.526;19.672;2022-07-10T06:16:23;100689.75;;;16.24;96.68
61908;BME280;47864;52.526;19.672;2022-07-10T06:18:25;100701.47;;;16.23;96.89
61908;BME280;47864;52.526;19.672;2022-07-10T06:20:27;100703.22;;;16.46;97.42
61908;BME280;47864;52.526;19.672;2022-07-10T06:22:29;100713.41;;;16.35;96.90
61908;BME280;47864;52.526;19.672;2022-07-10T06:24:31;100659.22;;;16.19;93.77
61908;BME280;47864;52.526;19.672;2022-07-10T06:26:33;100714.97;;;16.30;91.47
61908;BME280;47864;52.526;19.672;2022-07-10T06:28:35;100711.53;;;15.92;94.81
61908;BME280;47864;52.526;19.672;2022-07-10T06:30:37;100696.03;;;16.02;95.92
61908;BME280;47864;52.526;19.672;2022-07-10T06:32:40;100710.16;;;15.96;93.89
61908;BME280;47864;52.526;19.672;2022-07-10T06:34:42;100698.72;;;16.02;93.02
61908;BME280;47864;52.526;19.672;2022-07-10T06:36:44;100713.00;;;15.80;91.96
61908;BME280;47864;52.526;19.672;2022-07-10T06:38:45;100705.81;;;15.95;91.37
61908;BME280;47864;52.526;19.672;2022-07-10T06:40:47;100704.44;;;16.14;90.35
61908;BME280;47864;52.526;19.672;2022-07-10T06:42:49;100698.91;;;16.30;91.32
61908;BME280;47864;52.526;19.672;2022-07-10T06:44:51;100681.63;;;16.62;87.53
61908;BME280;47864;52.526;19.672;2022-07-10T06:46:53;100703.50;;;17.01;85.76
61908;BME280;47864;52.526;19.672;2022-07-10T06:48:55;100699.25;;;17.28;82.31
61908;BME280;47864;52.526;19.672;2022-07-10T06:50:57;100696.88;;;17.40;82.63
61908;BME280;47864;52.526;19.672;2022-07-10T06:52:59;100694.31;;;17.32;84.23
61908;BME280;47864;52.526;19.672;2022-07-10T06:55:03;100689.41;;;16.93;84.38
61908;BME280;47864;52.526;19.672;2022-07-10T06:57:05;100697.19;;;16.73;84.42
61908;BME280;47864;52.526;19.672;2022-07-10T06:59:08;100685.31;;;16.17;86.41
61908;BME280;47864;52.526;19.672;2022-07-10T07:01:10;100682.66;;;16.17;85.77
61908;BME280;47864;52.526;19.672;2022-07-10T07:03:12;100698.34;;;16.34;84.50
61908;BME280;47864;52.526;19.672;2022-07-10T07:05:14;100678.22;;;16.89;82.16
61908;BME280;47864;52.526;19.672;2022-07-10T07:07:16;100669.28;;;17.67;79.80
61908;BME280;47864;52.526;19.672;2022-07-10T07:09:25;100687.41;;;17.93;79.88
61908;BME280;47864;52.526;19.672;2022-07-10T07:11:27;100665.41;;;17.27;80.05
61908;BME280;47864;52.526;19.672;2022-07-10T07:13:29;100690.47;;;16.98;80.13
61908;BME280;47864;52.526;19.672;2022-07-10T07:15:31;100681.97;;;16.59;82.12
61908;BME280;47864;52.526;19.672;2022-07-10T07:17:39;100676.34;;;16.39;82.74
61908;BME280;47864;52.526;19.672;2022-07-10T07:19:41;100678.44;;;16.22;83.48
61908;BME280;47864;52.526;19.672;2022-07-10T07:21:43;100659.84;;;15.91;84.49
61908;BME280;47864;52.526;19.672;2022-07-10T07:23:45;100691.50;;;16.32;83.64
61908;BME280;47864;52.526;19.672;2022-07-10T07:25:47;100687.63;;;16.34;83.52
61908;BME280;47864;52.526;19.672;2022-07-10T07:27:49;100687.91;;;16.54;84.17
61908;BME280;47864;52.526;19.672;2022-07-10T07:29:51;100694.63;;;17.01;81.91
61908;BME280;47864;52.526;19.672;2022-07-10T07:31:53;100674.41;;;16.48;80.90
61908;BME280;47864;52.526;19.672;2022-07-10T07:33:55;100670.09;;;16.32;81.26
61908;BME280;47864;52.526;19.672;2022-07-10T07:35:57;100695.84;;;16.18;81.39
61908;BME280;47864;52.526;19.672;2022-07-10T07:38:01;100689.59;;;15.59;83.45
61908;BME280;47864;52.526;19.672;2022-07-10T07:40:09;100691.47;;;15.50;85.91
61908;BME280;47864;52.526;19.672;2022-07-10T07:42:11;100705.94;;;15.64;86.97
61908;BME280;47864;52.526;19.672;2022-07-10T07:44:13;100692.97;;;15.76;85.87
61908;BME280;47864;52.526;19.672;2022-07-10T07:46:15;100695.72;;;15.68;85.64
61908;BME280;47864;52.526;19.672;2022-07-10T07:48:17;100674.31;;;15.68;87.02
61908;BME280;47864;52.526;19.672;2022-07-10T07:50:20;100707.50;;;15.73;87.30
61908;BME280;47864;52.526;19.672;2022-07-10T07:52:22;100705.66;;;15.59;87.15
61908;BME280;47864;52.526;19.672;2022-07-10T07:54:24;100684.38;;;15.43;89.78
61908;BME280;47864;52.526;19.672;2022-07-10T07:56:27;100699.41;;;15.44;88.89
61908;BME280;47864;52.526;19.672;2022-07-10T07:58:31;100700.84;;;15.54;89.33
61908;BME280;47864;52.526;19.672;2022-07-10T08:00:34;100695.31;;;15.33;90.45
61908;BME280;47864;52.526;19.672;2022-07-10T08:02:36;100686.34;;;15.26;90.98
61908;BME280;47864;52.526;19.672;2022-07-10T08:04:38;100711.38;;;15.56;89.51
61908;BME280;47864;52.526;19.672;2022-07-10T08:06:40;100706.97;;;15.63;88.82
61908;BME280;47864;52.526;19.672;2022-07-10T08:08:42;100664.47;;;15.45;87.64
61908;BME280;47864;52.526;19.672;2022-07-10T08:10:44;100675.81;;;15.99;87.28
61908;BME280;47864;52.526;19.672;2022-07-10T08:12:46;100711.06;;;16.32;85.79
61908;BME280;47864;52.526;19.672;2022-07-10T08:14:48;100724.53;;;16.39;85.75
61908;BME280;47864;52.526;19.672;2022-07-10T08:16:52;100706.91;;;16.15;83.60
61908;BME280;47864;52.526;19.672;2022-07-10T08:18:54;100703.59;;;15.98;84.99
61908;BME280;47864;52.526;19.672;2022-07-10T08:20:56;100688.09;;;15.94;84.53
61908;BME280;47864;52.526;19.672;2022-07-10T08:22:58;100688.19;;;16.45;81.49
61908;BME280;47864;52.526;19.672;2022-07-10T08:25:01;100702.75;;;16.57;80.33
61908;BME280;47864;52.526;19.672;2022-07-10T08:27:03;100709.06;;;17.00;78.39
61908;BME280;47864;52.526;19.672;2022-07-10T08:29:05;100704.38;;;17.72;75.09
61908;BME280;47864;52.526;19.672;2022-07-10T08:31:07;100699.44;;;18.38;71.87
61908;BME280;47864;52.526;19.672;2022-07-10T08:33:16;100686.97;;;18.58;68.37
61908;BME280;47864;52.526;19.672;2022-07-10T08:35:18;100693.59;;;18.62;68.38
61908;BME280;47864;52.526;19.672;2022-07-10T08:37:19;100698.97;;;18.62;69.80
61908;BME280;47864;52.526;19.672;2022-07-10T08:39:21;100696.22;;;18.15;69.97
61908;BME280;47864;52.526;19.672;2022-07-10T08:41:25;100707.28;;;17.99;71.40
61908;BME280;47864;52.526;19.672;2022-07-10T08:43:28;100706.34;;;17.85;71.73
61908;BME280;47864;52.526;19.672;2022-07-10T08:45:33;100675.59;;;17.60;73.24
61908;BME280;47864;52.526;19.672;2022-07-10T08:47:36;100701.66;;;17.02;79.16
61908;BME280;47864;52.526;19.672;2022-07-10T08:49:46;100712.84;;;16.55;77.92
61908;BME280;47864;52.526;19.672;2022-07-10T08:52:02;100711.16;;;16.24;77.88
61908;BME280;47864;52.526;19.672;2022-07-10T08:54:04;100710.25;;;16.17;79.78
61908;BME280;47864;52.526;19.672;2022-07-10T08:56:06;100685.59;;;15.92;80.17
61908;BME280;47864;52.526;19.672;2022-07-10T08:58:10;100706.38;;;16.34;79.43
61908;BME280;47864;52.526;19.672;2022-07-10T09:00:13;100701.94;;;16.42;81.26
61908;BME280;47864;52.526;19.672;2022-07-10T09:02:15;100703.22;;;16.46;79.24
61908;BME280;47864;52.526;19.672;2022-07-10T09:04:22;100708.56;;;16.60;80.31
61908;BME280;47864;52.526;19.672;2022-07-10T09:06:25;100705.59;;;16.85;79.80
61908;BME280;47864;52.526;19.672;2022-07-10T09:08:32;100696.34;;;16.87;80.43
61908;BME280;47864;52.526;19.672;2022-07-10T09:10:34;100707.44;;;17.05;78.42
61908;BME280;47864;52.526;19.672;2022-07-10T09:12:55;100707.53;;;16.76;77.79
61908;BME280;47864;52.526;19.672;2022-07-10T09:15:15;100712.91;;;17.12;76.68
61908;BME280;47864;52.526;19.672;2022-07-10T09:17:17;100690.66;;;16.97;74.10
61908;BME280;47864;52.526;19.672;2022-07-10T09:19:24;100688.44;;;17.00;74.72
61908;BME280;47864;52.526;19.672;2022-07-10T09:21:32;100697.13;;;17.66;72.36
61908;BME280;47864;52.526;19.672;2022-07-10T09:23:34;100692.50;;;17.60;69.95
61908;BME280;47864;52.526;19.672;2022-07-10T09:25:36;100681.44;;;17.98;69.26
61908;BME280;47864;52.526;19.672;2022-07-10T09:27:51;100678.16;;;17.68;66.66
61908;BME280;47864;52.526;19.672;2022-07-10T09:29:53;100676.34;;;18.03;65.81
61908;BME280;47864;52.526;19.672;2022-07-10T09:33:57;100685.25;;;18.51;64.69
61908;BME280;47864;52.526;19.672;2022-07-10T09:36:06;100678.31;;;18.70;63.00
61908;BME280;47864;52.526;19.672;2022-07-10T09:38:08;100677.19;;;19.12;64.08
61908;BME280;47864;52.526;19.672;2022-07-10T09:40:10;100678.41;;;19.02;64.21
61908;BME280;47864;52.526;19.672;2022-07-10T09:42:24;100665.44;;;18.52;66.43
61908;BME280;47864;52.526;19.672;2022-07-10T09:44:26;100699.31;;;17.35;72.85
61908;BME280;47864;52.526;19.672;2022-07-10T09:46:35;100691.50;;;16.61;76.95
61908;BME280;47864;52.526;19.672;2022-07-10T09:48:37;100692.88;;;16.43;80.90
61908;BME280;47864;52.526;19.672;2022-07-10T09:50:39;100681.19;;;16.29;83.44
61908;BME280;47864;52.526;19.672;2022-07-10T09:52:41;100567.16;;;15.54;85.55
61908;BME280;47864;52.526;19.672;2022-07-10T09:54:44;100695.28;;;16.23;86.87
61908;BME280;47864;52.526;19.672;2022-07-10T09:56:49;100687.28;;;16.38;87.02
61908;BME280;47864;52.526;19.672;2022-07-10T09:58:52;100696.56;;;16.42;86.00
61908;BME280;47864;52.526;19.672;2022-07-10T10:00:55;100688.66;;;16.63;87.16
61908;BME280;47864;52.526;19.672;2022-07-10T10:03:06;100680.91;;;17.53;87.77
61908;BME280;47864;52.526;19.672;2022-07-10T10:05:09;100678.59;;;18.40;81.67
61908;BME280;47864;52.526;19.672;2022-07-10T10:07:12;100677.19;;;18.51;77.46
61908;BME280;47864;52.526;19.672;2022-07-10T10:09:22;100671.41;;;18.54;69.10
61908;BME280;47864;52.526;19.672;2022-07-10T10:11:26;100669.53;;;19.15;69.00
61908;BME280;47864;52.526;19.672;2022-07-10T10:13:28;100656.09;;;19.28;63.62
61908;BME280;47864;52.526;19.672;2022-07-10T10:15:31;100663.75;;;19.25;62.10
61908;BME280;47864;52.526;19.672;2022-07-10T10:17:34;100654.88;;;18.09;65.35
61908;BME280;47864;52.526;19.672;2022-07-10T10:19:38;100655.69;;;18.44;66.78
61908;BME280;47864;52.526;19.672;2022-07-10T10:21:41;100674.22;;;18.80;65.94
61908;BME280;47864;52.526;19.672;2022-07-10T10:23:43;100672.16;;;18.89;65.27
61908;BME280;47864;52.526;19.672;2022-07-10T10:25:45;100653.41;;;18.48;66.97
61908;BME280;47864;52.526;19.672;2022-07-10T10:27:47;100676.06;;;18.32;68.75
61908;BME280;47864;52.526;19.672;2022-07-10T10:29:50;100680.06;;;19.04;66.96